Time;durP1;ratioP1;P1;durP2;ratioP2;P2;SDS_P1;SDS_P2;PMS_P1;PMS_P2;Temp;Humidity;BMP_temperature;BMP_pressure;BME280_temperature;BME280_humidity;BME280_pressure;Samples;Min_cycle;Max_cycle;Signal;HPM_P1;HPM_P2
2021/07/20 00:01:42;;;;;;;27.13;15.13;;;12.90;99.60;;;;;;4861328;29;20039;-77
2021/07/20 00:04:09;;;;;;;23.35;13.77;;;12.90;99.90;;;;;;4894537;29;20537;-77
2021/07/20 00:06:35;;;;;;;26.70;13.60;;;12.90;99.60;;;;;;4892891;29;20047;-77
2021/07/20 00:09:02;;;;;;;25.13;13.75;;;12.90;99.60;;;;;;4895553;29;20046;-80
2021/07/20 00:11:28;;;;;;;24.73;13.88;;;12.90;99.70;;;;;;4894058;29;20551;-81
2021/07/20 00:13:57;;;;;;;27.85;14.98;;;12.90;99.70;;;;;;4894117;29;20452;-80
2021/07/20 00:16:26;;;;;;;25.65;14.40;;;13.00;99.90;;;;;;4879505;29;20402;-81
2021/07/20 00:18:52;;;;;;;22.30;13.13;;;12.90;99.60;;;;;;4897212;29;20044;-81
2021/07/20 00:21:18;;;;;;;29.50;15.70;;;12.90;99.90;;;;;;4895663;29;20099;-82
2021/07/20 00:23:47;;;;;;;27.05;15.05;;;12.80;99.70;;;;;;4873000;29;20384;-81
2021/07/20 00:26:13;;;;;;;27.45;14.88;;;12.80;99.70;;;;;;4873750;29;20533;-81
2021/07/20 00:28:39;;;;;;;30.10;16.15;;;12.80;99.80;;;;;;4883872;29;20059;-81
2021/07/20 00:31:05;;;;;;;24.95;13.98;;;12.70;99.90;;;;;;4880981;29;20777;-80
2021/07/20 00:33:31;;;;;;;28.17;15.23;;;12.70;99.90;;;;;;4897556;29;20039;-76
2021/07/20 00:35:58;;;;;;;23.80;13.95;;;12.70;99.80;;;;;;4877814;29;20139;-77
2021/07/20 00:38:25;;;;;;;31.13;15.35;;;12.70;99.80;;;;;;4894337;29;20500;-80
2021/07/20 00:40:53;;;;;;;32.13;15.98;;;12.60;99.90;;;;;;4892947;29;20064;-80
2021/07/20 00:43:22;;;;;;;31.95;15.60;;;12.60;99.90;;;;;;4881465;29;20048;-80
2021/07/20 00:45:48;;;;;;;28.65;14.75;;;12.60;99.90;;;;;;4911807;29;20127;-80
2021/07/20 00:48:14;;;;;;;31.60;15.55;;;12.50;99.90;;;;;;4879761;29;20463;-81
2021/07/20 00:50:43;;;;;;;27.15;14.80;;;12.50;99.90;;;;;;4876021;29;20073;-80
2021/07/20 00:53:10;;;;;;;34.25;16.90;;;12.50;99.90;;;;;;4914603;29;20182;-81
2021/07/20 00:55:37;;;;;;;33.85;17.50;;;12.50;99.90;;;;;;4892194;29;20066;-80
2021/07/20 00:58:08;;;;;;;29.50;14.88;;;12.50;99.90;;;;;;4876530;29;20075;-81
2021/07/20 01:00:35;;;;;;;31.58;15.98;;;12.50;99.90;;;;;;4894131;29;20044;-81
2021/07/20 01:03:02;;;;;;;34.63;17.40;;;12.50;99.90;;;;;;4894628;29;20111;-80
2021/07/20 01:05:29;;;;;;;34.83;16.48;;;12.50;99.90;;;;;;4910745;29;20099;-80
2021/07/20 01:07:56;;;;;;;23.58;11.98;;;12.50;99.90;;;;;;4878591;29;20064;-81
2021/07/20 01:10:24;;;;;;;22.23;12.30;;;12.50;99.90;;;;;;4897985;29;20048;-80
2021/07/20 01:12:50;;;;;;;24.75;13.57;;;12.60;99.90;;;;;;4895887;29;20048;-80
2021/07/20 01:15:20;;;;;;;21.77;13.27;;;12.60;99.90;;;;;;4893733;29;20535;-80
2021/07/20 01:17:48;;;;;;;23.27;13.02;;;12.60;99.90;;;;;;4878861;29;20107;-80
2021/07/20 01:20:16;;;;;;;23.10;12.75;;;12.70;99.90;;;;;;4876839;29;20044;-81
2021/07/20 01:23:11;;;;;;;25.00;14.15;;;12.70;99.90;;;;;;4911408;29;20130;-80
2021/07/20 01:25:38;;;;;;;25.23;13.82;;;12.80;99.90;;;;;;4908452;29;20400;-81
2021/07/20 01:28:10;;;;;;;27.65;15.40;;;12.80;99.90;;;;;;4889555;29;20651;-77
2021/07/20 01:30:38;;;;;;;29.65;14.95;;;12.80;99.90;;;;;;4912414;29;20055;-77
2021/07/20 01:33:06;;;;;;;23.63;12.48;;;12.80;99.90;;;;;;4909444;29;20064;-77
2021/07/20 01:35:34;;;;;;;24.33;13.60;;;12.90;99.90;;;;;;4892881;29;20138;-80
2021/07/20 01:38:03;;;;;;;24.50;12.93;;;12.90;99.90;;;;;;4894228;29;20092;-81
2021/07/20 01:40:29;;;;;;;22.58;13.65;;;12.90;99.90;;;;;;4909604;29;20079;-80
2021/07/20 01:42:56;;;;;;;24.50;13.55;;;12.90;99.90;;;;;;4879545;29;20044;-80
2021/07/20 01:45:23;;;;;;;27.20;14.23;;;12.90;99.90;;;;;;4889633;29;20040;-80
2021/07/20 01:47:50;;;;;;;22.83;13.52;;;12.90;99.90;;;;;;4893174;29;20040;-81
2021/07/20 01:50:18;;;;;;;32.25;15.88;;;13.00;99.90;;;;;;4889632;29;20044;-81
2021/07/20 01:52:46;;;;;;;22.35;12.52;;;13.00;99.90;;;;;;4890912;29;20032;-81
2021/07/20 01:55:13;;;;;;;23.15;13.80;;;13.00;99.90;;;;;;4909662;29;20043;-81
2021/07/20 01:57:40;;;;;;;25.40;14.65;;;13.00;99.90;;;;;;4904316;29;20095;-82
2021/07/20 02:00:13;;;;;;;23.23;14.55;;;13.00;99.90;;;;;;4878143;29;20408;-81
2021/07/20 02:02:54;;;;;;;25.60;14.15;;;13.10;99.90;;;;;;4890610;29;20165;-81
2021/07/20 02:08:27;;;;;;;24.52;14.75;;;13.10;99.90;;;;;;4908171;29;20364;-81
2021/07/20 02:10:57;;;;;;;21.15;12.68;;;13.10;99.90;;;;;;4905471;29;20119;-81
2021/07/20 02:13:25;;;;;;;24.70;14.32;;;13.10;99.90;;;;;;4892547;29;20113;-80
2021/07/20 02:15:53;;;;;;;24.67;14.70;;;13.20;99.90;;;;;;4891141;29;20063;-81
2021/07/20 02:18:23;;;;;;;26.55;14.30;;;13.20;99.90;;;;;;4909237;29;20040;-81
2021/07/20 02:20:51;;;;;;;27.83;13.70;;;13.20;99.90;;;;;;4891355;29;20079;-77
2021/07/20 02:23:18;;;;;;;24.42;13.93;;;13.20;99.90;;;;;;4892910;29;20051;-77
2021/07/20 02:25:46;;;;;;;25.83;13.43;;;13.20;99.90;;;;;;4889796;29;20043;-76
2021/07/20 02:28:13;;;;;;;32.45;14.43;;;13.20;99.90;;;;;;4906302;29;20040;-76
2021/07/20 02:30:44;;;;;;;21.67;12.45;;;13.20;99.90;;;;;;4877614;29;20036;-81
2021/07/20 02:33:10;;;;;;;25.63;14.02;;;13.20;99.90;;;;;;4863251;29;20060;-81
2021/07/20 02:35:41;;;;;;;21.65;12.07;;;13.30;99.90;;;;;;4892942;29;20120;-81
2021/07/20 02:38:07;;;;;;;23.38;13.27;;;13.30;99.90;;;;;;4876716;29;20060;-81
2021/07/20 02:40:34;;;;;;;27.83;14.88;;;13.30;99.90;;;;;;4876741;29;20044;-81
2021/07/20 02:43:02;;;;;;;27.77;14.63;;;13.40;99.90;;;;;;4909402;29;20036;-77
2021/07/20 02:45:33;;;;;;;26.20;14.40;;;13.30;99.90;;;;;;4893144;29;20048;-77
2021/07/20 02:48:03;;;;;;;19.42;12.48;;;13.30;99.90;;;;;;4905709;29;20500;-76
2021/07/20 02:50:31;;;;;;;26.40;13.82;;;13.30;99.90;;;;;;4890507;29;20120;-77
2021/07/20 02:52:58;;;;;;;17.65;11.70;;;13.40;99.90;;;;;;4875976;29;20431;-77
2021/07/20 02:55:26;;;;;;;23.42;13.95;;;13.40;99.90;;;;;;4882202;29;20475;-77
2021/07/20 02:57:53;;;;;;;28.05;14.45;;;13.40;99.90;;;;;;4908482;29;20115;-77
2021/07/20 03:00:21;;;;;;;22.85;13.10;;;13.50;99.90;;;;;;4893047;29;20036;-77
2021/07/20 03:02:48;;;;;;;21.58;12.73;;;13.50;99.90;;;;;;4874362;29;20048;-81
2021/07/20 03:05:18;;;;;;;20.80;12.07;;;13.50;99.90;;;;;;4878762;29;20043;-81
2021/07/20 03:07:53;;;;;;;18.73;12.15;;;13.60;99.90;;;;;;4908032;29;20095;-81
2021/07/20 03:10:22;;;;;;;21.35;11.82;;;13.60;99.90;;;;;;4908325;29;20036;-77
2021/07/20 03:12:49;;;;;;;21.17;12.77;;;13.60;99.90;;;;;;4909761;29;20127;-81
2021/07/20 03:15:18;;;;;;;23.35;13.73;;;13.70;99.90;;;;;;4906127;29;20103;-81
2021/07/20 03:17:46;;;;;;;23.65;13.55;;;13.70;99.90;;;;;;4904645;29;20188;-81
2021/07/20 03:20:14;;;;;;;20.08;12.15;;;13.70;99.90;;;;;;4856435;29;20044;-81
2021/07/20 03:22:42;;;;;;;23.13;13.65;;;13.70;99.90;;;;;;4890722;29;20506;-80
2021/07/20 03:25:11;;;;;;;21.42;13.27;;;13.70;99.90;;;;;;4875403;29;20052;-81
2021/07/20 03:27:40;;;;;;;23.70;12.65;;;13.70;99.90;;;;;;4904124;29;20040;-77
2021/07/20 03:30:11;;;;;;;23.45;13.25;;;13.70;99.90;;;;;;4888935;29;20044;-77
2021/07/20 03:32:38;;;;;;;;;;;13.70;99.90;;;;;;4892820;29;20455;-77
2021/07/20 03:35:07;;;;;;;18.38;11.77;;;13.60;99.90;;;;;;4892328;29;19923;-77
2021/07/20 03:37:33;;;;;;;19.48;11.43;;;13.60;99.90;;;;;;4890225;29;20052;-77
2021/07/20 03:40:00;;;;;;;16.92;11.10;;;13.70;99.90;;;;;;4889877;29;20047;-77
2021/07/20 03:42:26;;;;;;;20.05;11.98;;;13.70;99.90;;;;;;4892170;29;20044;-76
2021/07/20 03:44:54;;;;;;;20.58;12.38;;;13.70;99.90;;;;;;4873547;29;20427;-77
2021/07/20 03:47:20;;;;;;;21.40;12.85;;;13.70;99.90;;;;;;4890306;29;20402;-77
2021/07/20 03:49:47;;;;;;;20.75;12.30;;;13.80;99.90;;;;;;4875762;29;20422;-77
2021/07/20 03:52:14;;;;;;;21.60;13.00;;;13.80;99.90;;;;;;4881193;29;20265;-77
2021/07/20 03:54:41;;;;;;;21.13;12.60;;;13.80;99.90;;;;;;4892033;29;20395;-77
2021/07/20 03:57:13;;;;;;;21.13;12.57;;;13.80;99.90;;;;;;4903729;29;20443;-77
2021/07/20 03:59:40;;;;;;;23.48;13.57;;;13.80;99.90;;;;;;4892550;29;20167;-77
2021/07/20 04:02:18;;;;;;;22.73;12.18;;;13.80;99.90;;;;;;4911188;29;20032;-81
2021/07/20 04:04:46;;;;;;;19.70;12.30;;;13.80;99.90;;;;;;4876719;29;20044;-81
2021/07/20 04:07:15;;;;;;;21.67;12.75;;;13.80;99.90;;;;;;4906808;29;20237;-81
2021/07/20 04:09:42;;;;;;;;;;;13.90;99.90;;;;;;4894087;29;20079;-81
2021/07/20 04:12:13;;;;;;;21.85;12.90;;;13.90;99.90;;;;;;4913221;29;19974;-81
2021/07/20 04:14:41;;;;;;;24.88;13.00;;;13.90;99.90;;;;;;4896097;29;20048;-81
2021/07/20 04:17:12;;;;;;;23.13;12.88;;;13.90;99.90;;;;;;4875424;29;20402;-81
2021/07/20 04:19:39;;;;;;;22.23;12.30;;;13.90;99.90;;;;;;4912804;29;20044;-77
2021/07/20 04:22:09;;;;;;;21.13;12.70;;;14.00;99.90;;;;;;4881314;29;20838;-77
2021/07/20 04:24:35;;;;;;;21.52;11.55;;;14.00;99.90;;;;;;4879098;29;20071;-77
2021/07/20 04:27:03;;;;;;;20.63;11.68;;;14.00;99.90;;;;;;4892495;29;20437;-77
2021/07/20 04:29:30;;;;;;;21.45;11.88;;;14.00;99.90;;;;;;4867022;29;20726;-77
2021/07/20 04:32:01;;;;;;;19.33;11.95;;;14.00;99.90;;;;;;4899028;29;20063;-78
2021/07/20 04:34:27;;;;;;;15.45;10.18;;;14.10;99.90;;;;;;4911478;29;20035;-81
2021/07/20 04:36:54;;;;;;;19.17;12.48;;;14.10;99.90;;;;;;4883783;29;20483;-81
2021/07/20 04:39:22;;;;;;;18.67;11.73;;;14.20;99.90;;;;;;4895604;29;20135;-81
2021/07/20 04:41:49;;;;;;;20.00;12.68;;;14.20;99.90;;;;;;4892339;29;20105;-81
2021/07/20 04:44:16;;;;;;;21.40;11.63;;;14.20;99.90;;;;;;4873532;29;20052;-81
2021/07/20 04:46:45;;;;;;;19.73;10.95;;;14.30;99.90;;;;;;4879874;29;20445;-81
2021/07/20 04:49:15;;;;;;;19.00;11.02;;;14.30;99.90;;;;;;4896758;29;20103;-82
2021/07/20 04:51:45;;;;;;;18.73;11.35;;;14.30;99.90;;;;;;4887632;29;20051;-81
2021/07/20 04:54:16;;;;;;;;;;;14.40;99.90;;;;;;4896288;29;20048;-81
2021/07/20 04:56:43;;;;;;;17.42;11.70;;;14.40;99.90;;;;;;4904768;29;19930;-81
2021/07/20 04:59:12;;;;;;;17.90;11.60;;;14.40;99.90;;;;;;4886332;29;20055;-81
2021/07/20 05:01:40;;;;;;;18.13;12.32;;;14.50;99.90;;;;;;4911500;29;20036;-81
2021/07/20 05:04:11;;;;;;;17.27;11.23;;;14.50;99.90;;;;;;4893165;29;20115;-81
2021/07/20 05:06:37;;;;;;;18.15;12.02;;;14.50;99.90;;;;;;4895569;29;20107;-81
2021/07/20 05:09:05;;;;;;;20.30;12.10;;;14.60;99.90;;;;;;4866814;29;20134;-81
2021/07/20 05:11:35;;;;;;;17.77;11.10;;;14.60;99.90;;;;;;4912576;29;20048;-82
2021/07/20 05:14:01;;;;;;;17.38;11.15;;;14.70;99.90;;;;;;4892808;29;20127;-81
2021/07/20 05:16:27;;;;;;;18.48;11.45;;;14.80;99.90;;;;;;4876114;29;20047;-81
2021/07/20 05:18:56;;;;;;;19.00;12.38;;;14.80;99.90;;;;;;4910638;29;20047;-76
2021/07/20 05:21:23;;;;;;;22.27;12.80;;;14.90;99.90;;;;;;4908972;29;20055;-76
2021/07/20 05:23:49;;;;;;;22.08;12.82;;;14.90;99.90;;;;;;4876408;29;20039;-77
2021/07/20 05:26:16;;;;;;;20.17;11.73;;;14.90;99.90;;;;;;4887585;29;20040;-77
2021/07/20 05:28:43;;;;;;;19.77;12.55;;;15.00;99.90;;;;;;4878337;29;20044;-77
2021/07/20 05:31:12;;;;;;;17.15;11.95;;;15.00;99.90;;;;;;4864048;29;20582;-77
2021/07/20 05:33:47;;;;;;;19.17;12.07;;;15.00;99.90;;;;;;4890162;29;20565;-82
2021/07/20 05:36:13;;;;;;;19.85;12.85;;;15.10;99.90;;;;;;4892994;29;20129;-82
2021/07/20 05:38:40;;;;;;;19.38;12.38;;;15.20;99.90;;;;;;4888581;29;20084;-81
2021/07/20 05:41:06;;;;;;;21.48;12.32;;;15.20;99.90;;;;;;4888641;29;20040;-82
2021/07/20 05:43:33;;;;;;;19.13;11.48;;;15.30;99.90;;;;;;4888987;29;20047;-82
2021/07/20 05:46:01;;;;;;;19.52;11.85;;;15.30;99.90;;;;;;4861879;29;20040;-82
2021/07/20 05:48:29;;;;;;;17.42;10.50;;;15.40;99.90;;;;;;4907898;29;20044;-82
2021/07/20 05:51:00;;;;;;;20.02;11.25;;;15.50;99.90;;;;;;4891669;29;20048;-81
2021/07/20 05:53:28;;;;;;;17.80;10.55;;;15.50;99.90;;;;;;4911305;29;20135;-82
2021/07/20 05:55:59;;;;;;;17.92;11.32;;;15.50;99.90;;;;;;4891363;29;20047;-81
2021/07/20 05:58:25;;;;;;;19.88;11.88;;;15.60;99.90;;;;;;4907466;29;20044;-81
2021/07/20 06:00:58;;;;;;;18.45;12.02;;;15.60;99.90;;;;;;4879197;29;20859;-81
2021/07/20 06:03:26;;;;;;;22.38;12.05;;;15.70;99.90;;;;;;4905541;29;20514;-80
2021/07/20 06:05:55;;;;;;;19.45;12.13;;;15.70;99.90;;;;;;4892379;29;20051;-81
2021/07/20 06:08:25;;;;;;;19.90;11.75;;;15.80;99.90;;;;;;4909332;29;20092;-82
2021/07/20 06:10:55;;;;;;;23.50;12.80;;;15.80;99.70;;;;;;4893952;29;20134;-81
2021/07/20 06:13:25;;;;;;;19.23;11.90;;;15.90;99.70;;;;;;4893413;29;20488;-81
2021/07/20 06:15:52;;;;;;;20.95;12.90;;;15.90;99.50;;;;;;4893575;29;20043;-80
2021/07/20 06:18:18;;;;;;;19.35;12.07;;;15.90;99.00;;;;;;4891525;29;20182;-82
2021/07/20 06:21:02;;;;;;;20.23;11.25;;;16.00;99.00;;;;;;4875680;29;20746;-82
2021/07/20 06:23:39;;;;;;;15.85;10.95;;;16.00;98.80;;;;;;4893204;29;20040;-82
2021/07/20 06:26:05;;;;;;;21.35;12.55;;;16.00;98.70;;;;;;4891645;29;20049;-81
2021/07/20 06:28:32;;;;;;;18.38;11.73;;;16.00;98.60;;;;;;4895199;29;20388;-82
2021/07/20 06:30:58;;;;;;;17.38;11.55;;;16.10;98.70;;;;;;4862937;29;20070;-82
2021/07/20 06:33:28;;;;;;;18.08;11.88;;;16.10;98.50;;;;;;4907020;29;20036;-82
2021/07/20 06:35:55;;;;;;;17.58;11.85;;;16.20;98.40;;;;;;4890430;29;20093;-82
2021/07/20 06:38:23;;;;;;;15.80;9.93;;;16.20;98.20;;;;;;4892782;29;20067;-82
2021/07/20 06:40:52;;;;;;;17.48;11.38;;;16.30;98.20;;;;;;4874638;29;20151;-82
2021/07/20 06:43:18;;;;;;;17.33;11.57;;;16.40;98.10;;;;;;4886058;29;20068;-82
2021/07/20 06:45:46;;;;;;;18.55;11.18;;;16.50;97.70;;;;;;4891815;29;20036;-82
2021/07/20 06:48:14;;;;;;;17.02;11.30;;;16.50;97.60;;;;;;4900348;29;20040;-82
2021/07/20 06:50:45;;;;;;;15.80;11.15;;;16.60;97.30;;;;;;4876090;29;20422;-82
2021/07/20 06:53:13;;;;;;;16.50;11.43;;;16.70;96.70;;;;;;4913197;29;20054;-82
2021/07/20 06:55:49;;;;;;;16.30;10.82;;;16.70;96.60;;;;;;4893362;29;20048;-82
2021/07/20 06:58:19;;;;;;;16.60;10.43;;;16.80;96.90;;;;;;4901207;29;20100;-82
2021/07/20 07:00:48;;;;;;;14.98;10.05;;;16.90;97.00;;;;;;4886820;29;20645;-82
2021/07/20 07:03:16;;;;;;;18.38;10.43;;;17.00;97.30;;;;;;4893475;29;20131;-82
2021/07/20 07:05:43;;;;;;;16.15;10.00;;;17.10;96.60;;;;;;4877012;29;20614;-82
2021/07/20 07:08:11;;;;;;;11.50;8.55;;;17.20;96.10;;;;;;4893098;29;20115;-81
2021/07/20 07:10:37;;;;;;;13.23;9.48;;;17.30;95.50;;;;;;4889926;29;20046;-82
2021/07/20 07:13:07;;;;;;;11.98;8.32;;;17.40;95.40;;;;;;4888682;29;20510;-82
2021/07/20 07:15:37;;;;;;;13.05;8.43;;;17.50;94.80;;;;;;4856852;29;20070;-82
2021/07/20 07:18:04;;;;;;;12.07;8.40;;;17.60;94.30;;;;;;4904360;29;20032;-82
2021/07/20 07:20:34;;;;;;;11.65;8.73;;;17.70;93.90;;;;;;4905020;29;20050;-82
2021/07/20 07:23:02;;;;;;;11.13;7.88;;;17.80;94.00;;;;;;4898097;29;20407;-80
2021/07/20 07:25:28;;;;;;;10.30;7.55;;;17.90;93.50;;;;;;4878334;29;20507;-78
2021/07/20 07:27:55;;;;;;;11.88;8.20;;;17.90;92.80;;;;;;4882597;29;20063;-79
2021/07/20 07:30:22;;;;;;;11.25;8.15;;;17.90;92.40;;;;;;4890241;29;20036;-79
2021/07/20 07:32:49;;;;;;;11.73;9.20;;;18.00;92.60;;;;;;4905117;29;20056;-78
2021/07/20 07:35:15;;;;;;;14.25;8.73;;;18.00;91.70;;;;;;4892724;29;20406;-79
2021/07/20 07:37:42;;;;;;;12.30;8.20;;;18.00;92.10;;;;;;4859324;29;20578;-79
2021/07/20 07:40:10;;;;;;;12.10;8.52;;;18.00;92.50;;;;;;4889816;29;20151;-83
2021/07/20 07:42:41;;;;;;;14.95;10.10;;;18.10;93.00;;;;;;4891732;29;20044;-82
2021/07/20 07:45:08;;;;;;;15.23;10.23;;;18.20;93.40;;;;;;4897722;29;20510;-83
2021/07/20 07:47:38;;;;;;;14.18;9.57;;;18.30;93.30;;;;;;4890924;29;20123;-82
2021/07/20 07:50:11;;;;;;;12.25;9.40;;;18.40;93.20;;;;;;4894916;29;20040;-82
2021/07/20 07:52:37;;;;;;;15.65;9.85;;;18.40;92.60;;;;;;4864045;29;20040;-81
2021/07/20 07:55:05;;;;;;;13.60;8.52;;;18.40;92.80;;;;;;4891527;29;20478;-80
2021/07/20 07:57:31;;;;;;;12.50;8.35;;;18.50;91.10;;;;;;4879815;29;20058;-81
2021/07/20 07:59:59;;;;;;;13.30;9.60;;;18.50;90.70;;;;;;4892338;29;20487;-79
2021/07/20 08:02:30;;;;;;;12.50;8.55;;;18.70;91.40;;;;;;4881080;29;20047;-80
2021/07/20 08:05:03;;;;;;;12.40;8.65;;;18.90;89.10;;;;;;4893374;29;20080;-80
2021/07/20 08:07:31;;;;;;;12.45;8.77;;;19.00;86.50;;;;;;4908401;29;20048;-81
2021/07/20 08:09:58;;;;;;;13.10;8.23;;;19.10;87.80;;;;;;4879157;29;20139;-82
2021/07/20 08:12:27;;;;;;;13.40;8.88;;;19.20;86.50;;;;;;4879646;29;20403;-80
2021/07/20 08:14:53;;;;;;;11.50;8.32;;;19.30;84.30;;;;;;4890288;29;20042;-79
2021/07/20 08:17:22;;;;;;;10.45;8.07;;;19.40;85.40;;;;;;4880379;29;20115;-80
2021/07/20 08:19:49;;;;;;;12.20;8.60;;;19.50;82.80;;;;;;4910609;29;20159;-80
2021/07/20 08:22:18;;;;;;;11.85;8.07;;;19.60;82.60;;;;;;4896676;29;20070;-79
2021/07/20 08:25:23;;;;;;;11.60;7.53;;;19.70;83.20;;;;;;4877638;29;20130;-80
2021/07/20 08:28:04;;;;;;;13.30;8.25;;;19.80;85.10;;;;;;4884809;29;20504;-80
2021/07/20 08:30:36;;;;;;;11.85;8.10;;;19.90;79.40;;;;;;4905768;29;20044;-83
2021/07/20 08:33:03;;;;;;;10.73;7.82;;;20.00;83.70;;;;;;4910836;29;20563;-80
2021/07/20 08:35:32;;;;;;;12.55;7.72;;;20.10;85.00;;;;;;4894001;29;20497;-80
2021/07/20 08:38:09;;;;;;;12.18;7.63;;;20.20;82.80;;;;;;4909588;29;20549;-79
2021/07/20 08:40:51;;;;;;;12.80;7.93;;;20.30;82.40;;;;;;4881125;29;20067;-78
2021/07/20 08:44:04;;;;;;;10.38;8.10;;;20.30;84.20;;;;;;4894231;29;20138;-79
2021/07/20 08:46:57;;;;;;;9.95;7.00;;;20.10;82.60;;;;;;4885788;29;20052;-79
2021/07/20 08:49:31;;;;;;;12.05;7.88;;;19.90;81.40;;;;;;4906177;29;20044;-81
2021/07/20 08:52:03;;;;;;;11.23;7.65;;;19.90;79.20;;;;;;4893034;29;20403;-79
2021/07/20 08:54:41;;;;;;;10.32;7.50;;;20.00;80.30;;;;;;4893652;29;20040;-78
2021/07/20 08:57:11;;;;;;;16.20;9.05;;;20.20;80.50;;;;;;4887577;29;20278;-78
2021/07/20 09:00:20;;;;;;;12.02;8.15;;;20.50;82.80;;;;;;4888763;29;20086;-79
2021/07/20 09:03:07;;;;;;;11.48;8.43;;;20.80;83.60;;;;;;4838852;29;20068;-79
2021/07/20 09:05:47;;;;;;;10.93;7.47;;;21.10;82.70;;;;;;4905192;29;20052;-78
2021/07/20 09:08:18;;;;;;;10.25;7.72;;;21.30;77.80;;;;;;4896130;29;20585;-77
2021/07/20 09:10:52;;;;;;;9.95;7.65;;;21.50;79.60;;;;;;4912885;29;20094;-81
2021/07/20 09:13:25;;;;;;;8.65;6.93;;;21.30;73.90;;;;;;4912514;29;20103;-78
2021/07/20 09:16:05;;;;;;;8.88;6.40;;;21.00;66.80;;;;;;4869410;29;20484;-78
2021/07/20 09:18:39;;;;;;;;;;;20.70;72.10;;;;;;4887403;29;20456;-78
2021/07/20 09:21:07;;;;;;;10.90;7.47;;;20.50;74.80;;;;;;4889071;29;19927;-77
2021/07/20 09:23:44;;;;;;;11.15;7.82;;;20.30;75.60;;;;;;4893820;29;20048;-78
2021/07/20 09:26:20;;;;;;;9.63;6.25;;;20.20;78.00;;;;;;4903278;29;20431;-80
2021/07/20 09:28:57;;;;;;;9.80;6.20;;;20.00;78.80;;;;;;4899400;29;20051;-79
2021/07/20 09:31:42;;;;;;;9.30;6.57;;;20.00;77.30;;;;;;4895456;29;20503;-78
2021/07/20 09:34:19;;;;;;;11.23;6.68;;;19.90;77.00;;;;;;4906151;29;20099;-78
2021/07/20 09:37:06;;;;;;;8.23;6.22;;;20.00;76.50;;;;;;4900391;29;20037;-76
2021/07/20 09:39:41;;;;;;;9.23;6.82;;;20.00;75.70;;;;;;4897077;29;20036;-78
2021/07/20 09:42:27;;;;;;;9.55;7.07;;;20.10;75.50;;;;;;4914350;29;20051;-78
2021/07/20 09:45:24;;;;;;;11.68;7.95;;;20.10;73.80;;;;;;4890868;29;20124;-79
2021/07/20 09:48:28;;;;;;;10.35;7.80;;;20.00;76.10;;;;;;4896017;29;20486;-79
2021/07/20 09:51:32;;;;;;;12.52;7.80;;;20.00;79.00;;;;;;4865257;29;20048;-78
2021/07/20 09:54:30;;;;;;;14.55;7.90;;;20.00;82.80;;;;;;4868161;29;20056;-80
2021/07/20 09:57:17;;;;;;;10.35;7.82;;;20.10;85.20;;;;;;4897474;29;20156;-79
2021/07/20 10:00:02;;;;;;;10.32;7.78;;;20.50;84.00;;;;;;4872660;29;20143;-79
2021/07/20 10:02:35;;;;;;;12.40;8.35;;;20.90;80.30;;;;;;4911703;29;20446;-79
2021/07/20 10:05:04;;;;;;;10.23;6.97;;;21.20;78.10;;;;;;4903699;29;20127;-78
2021/07/20 10:07:49;;;;;;;11.30;7.43;;;21.30;76.40;;;;;;4913361;29;20107;-80
2021/07/20 10:10:30;;;;;;;8.45;7.05;;;21.50;75.30;;;;;;4907087;29;20551;-80
2021/07/20 10:13:17;;;;;;;10.43;7.50;;;21.60;71.10;;;;;;4889298;29;20040;-79
2021/07/20 10:16:21;;;;;;;9.57;6.93;;;21.60;73.20;;;;;;4888453;29;20503;-80
2021/07/20 10:19:01;;;;;;;9.43;6.78;;;21.50;71.10;;;;;;4910815;29;20502;-82
2021/07/20 10:21:30;;;;;;;9.65;6.72;;;21.50;70.90;;;;;;4884295;29;20047;-80
2021/07/20 10:24:06;;;;;;;10.15;7.15;;;21.40;68.80;;;;;;4874734;29;20044;-80
2021/07/20 10:27:00;;;;;;;9.73;6.80;;;21.40;71.50;;;;;;4888236;29;20428;-79
2021/07/20 10:29:32;;;;;;;11.38;7.43;;;21.50;73.10;;;;;;4884154;29;20063;-80
2021/07/20 10:32:40;;;;;;;10.23;7.47;;;21.70;75.90;;;;;;4905340;29;20063;-80
2021/07/20 10:35:15;;;;;;;9.25;6.90;;;22.00;76.20;;;;;;4892947;29;20579;-77
2021/07/20 10:37:43;;;;;;;11.50;6.78;;;22.10;72.10;;;;;;4874138;29;20047;-79
2021/07/20 10:40:14;;;;;;;10.50;7.43;;;22.10;69.30;;;;;;4887840;29;20040;-78
2021/07/20 10:43:00;;;;;;;10.27;7.28;;;22.10;73.00;;;;;;4890662;29;20445;-79
2021/07/20 10:45:33;;;;;;;9.00;6.55;;;22.00;68.50;;;;;;4889622;29;20036;-79
2021/07/20 10:48:07;;;;;;;10.98;7.25;;;21.90;69.50;;;;;;4884488;29;20040;-77
2021/07/20 10:50:56;;;;;;;8.40;6.85;;;21.90;69.50;;;;;;4903961;29;20406;-78
2021/07/20 10:53:36;;;;;;;7.75;5.53;;;21.90;68.70;;;;;;4901726;29;20039;-78
2021/07/20 10:56:32;;;;;;;8.55;6.55;;;21.80;70.40;;;;;;4887575;29;21494;-77
2021/07/20 10:59:10;;;;;;;9.00;6.50;;;21.60;70.10;;;;;;4883730;29;20048;-76
2021/07/20 11:02:02;;;;;;;9.90;6.55;;;21.40;71.20;;;;;;4891566;29;20040;-77
2021/07/20 11:04:28;;;;;;;9.27;6.78;;;21.30;72.80;;;;;;4880316;29;20052;-77
2021/07/20 11:06:55;;;;;;;10.10;7.00;;;21.30;76.20;;;;;;4920230;29;20047;-78
2021/07/20 11:09:23;;;;;;;8.77;6.55;;;21.40;76.00;;;;;;4881548;29;20512;-78
2021/07/20 11:11:56;;;;;;;10.23;7.00;;;21.30;74.50;;;;;;4906549;29;20046;-78
2021/07/20 11:14:32;;;;;;;10.45;7.25;;;21.50;78.10;;;;;;4901899;29;20048;-77
2021/07/20 11:17:00;;;;;;;9.73;7.07;;;21.80;78.90;;;;;;4904622;29;20040;-78
2021/07/20 11:19:29;;;;;;;10.07;6.97;;;22.10;72.60;;;;;;4909668;29;20052;-76
2021/07/20 11:21:58;;;;;;;10.68;7.07;;;22.40;73.10;;;;;;4870191;29;20044;-76
2021/07/20 11:24:25;;;;;;;8.48;6.15;;;22.60;72.80;;;;;;4901084;29;20492;-77
2021/07/20 11:26:51;;;;;;;10.65;7.25;;;22.80;73.70;;;;;;4905114;29;20058;-79
2021/07/20 11:29:19;;;;;;;8.95;6.50;;;23.00;74.10;;;;;;4900102;29;20040;-79
2021/07/20 11:31:51;;;;;;;10.23;6.75;;;23.20;68.90;;;;;;4897882;29;20044;-78
2021/07/20 11:34:23;;;;;;;7.28;5.78;;;23.20;63.40;;;;;;4914160;29;20050;-80
2021/07/20 11:36:53;;;;;;;8.77;6.45;;;23.30;63.70;;;;;;4876821;29;20183;-80
2021/07/20 11:39:27;;;;;;;9.85;6.85;;;23.50;65.70;;;;;;4892889;29;20483;-80
2021/07/20 11:42:10;;;;;;;10.07;6.60;;;23.70;66.80;;;;;;4914768;29;20044;-80
2021/07/20 11:44:50;;;;;;;8.95;6.22;;;23.80;61.00;;;;;;4892987;29;20036;-80
2021/07/20 11:47:34;;;;;;;8.07;6.55;;;23.70;61.40;;;;;;4890751;29;20485;-79
2021/07/20 11:50:12;;;;;;;9.60;6.80;;;23.60;63.70;;;;;;4888254;29;20086;-79
2021/07/20 11:52:44;;;;;;;7.88;6.18;;;23.60;63.50;;;;;;4889086;29;20131;-79
2021/07/20 11:55:30;;;;;;;8.93;6.70;;;23.50;65.20;;;;;;4892609;29;20060;-80
2021/07/20 11:58:25;;;;;;;10.23;7.18;;;23.30;65.00;;;;;;4912305;29;20044;-80
2021/07/20 12:01:43;;;;;;;9.65;6.90;;;23.10;67.50;;;;;;4894803;29;20446;-79
2021/07/20 12:04:34;;;;;;;9.20;7.03;;;22.90;67.30;;;;;;4899648;29;20055;-80
2021/07/20 12:07:08;;;;;;;8.45;6.18;;;22.70;68.20;;;;;;4907596;29;20056;-81
2021/07/20 12:09:49;;;;;;;8.20;6.45;;;22.70;68.80;;;;;;4909948;29;20036;-79
2021/07/20 12:12:18;;;;;;;9.73;6.82;;;22.70;71.20;;;;;;4886545;29;20534;-81
2021/07/20 12:14:44;;;;;;;9.30;6.35;;;22.70;70.20;;;;;;4878228;29;20496;-79
2021/07/20 12:17:10;;;;;;;8.80;6.43;;;22.80;70.20;;;;;;4900189;29;20123;-79
2021/07/20 12:19:37;;;;;;;10.18;6.78;;;22.90;73.20;;;;;;4906982;29;20127;-80
2021/07/20 12:22:04;;;;;;;8.75;6.63;;;22.90;70.90;;;;;;4861722;29;20083;-80
2021/07/20 12:24:31;;;;;;;9.93;6.32;;;22.90;72.50;;;;;;4893892;29;20048;-81
2021/07/20 12:26:57;;;;;;;10.60;6.28;;;22.90;71.60;;;;;;4910572;29;20044;-81
2021/07/20 12:29:22;;;;;;;8.27;6.57;;;23.00;71.90;;;;;;4907252;29;20062;-80
2021/07/20 12:31:50;;;;;;;8.05;6.75;;;23.10;71.30;;;;;;4884470;29;20052;-80
2021/07/20 12:34:20;;;;;;;14.68;6.30;;;23.10;69.80;;;;;;4902281;29;20505;-80
2021/07/20 12:36:46;;;;;;;8.93;5.93;;;23.10;59.00;;;;;;4909888;29;20204;-83
2021/07/20 12:39:20;;;;;;;8.00;5.82;;;22.90;61.30;;;;;;4882766;29;20070;-80
2021/07/20 12:41:49;;;;;;;8.93;6.13;;;22.70;63.50;;;;;;4915319;29;20054;-80
2021/07/20 12:44:16;;;;;;;7.70;5.55;;;22.50;63.30;;;;;;4884380;29;20311;-80
2021/07/20 12:46:42;;;;;;;8.13;5.95;;;22.40;65.00;;;;;;4877381;29;20051;-80
2021/07/20 12:49:13;;;;;;;8.48;6.10;;;22.40;68.50;;;;;;4875442;29;20044;-80
2021/07/20 12:51:51;;;;;;;7.82;6.13;;;22.30;66.70;;;;;;4888619;29;21101;-80
2021/07/20 12:54:41;;;;;;;8.55;6.18;;;22.20;71.20;;;;;;4888150;29;20491;-81
2021/07/20 12:57:09;;;;;;;10.85;6.25;;;22.30;66.00;;;;;;4904344;29;20447;-78
2021/07/20 12:59:40;;;;;;;8.70;6.10;;;22.30;65.00;;;;;;4871828;29;20036;-80